Flight Track Log - Related Links

Times and Time Zones

All times are in EDT time to prevent confusion due to time zone crossing. See the CSN369 flight status page for this flight to view local times or setup timezone preferences in your user account.

Time Position Orientation Groundspeed Altitude Reporting Facility
EDT Latitude Longitude Course Direction KTS MPH feet Rate Location/Type
Mon 04:49:15 AM 33.8623 123.6938 31° Northeast  Level Estimated
Mon 04:50:15 AM 33.9369 123.7479 31° Northeast  Level Estimated
Mon 04:51:15 AM 34.0114 123.8022 31° Northeast  Level Estimated
Mon 04:52:15 AM 34.0860 123.8565 31° Northeast  Level Estimated
Mon 04:53:15 AM 34.1605 123.9109 31° Northeast  Level Estimated
Mon 04:54:15 AM 34.2350 123.9654 31° Northeast  Level Estimated
Mon 04:55:15 AM 34.3095 124.0200 31° Northeast  Level Estimated
Mon 04:56:15 AM 34.3840 124.0747 31° Northeast  Level Estimated
Mon 04:57:15 AM 34.4584 124.1295 31° Northeast  Level Estimated
Mon 04:58:15 AM 34.5328 124.1844 31° Northeast  Level Estimated
Mon 04:59:15 AM 34.6072 124.2394 31° Northeast  Level Estimated
Mon 05:00:15 AM 34.6815 124.2945 31° Northeast  Level Estimated
Mon 05:01:15 AM 34.7559 124.3497 31° Northeast  Level Estimated
Mon 05:02:15 AM 34.8302 124.4050 31° Northeast  Level Estimated
Mon 05:03:15 AM 34.9045 124.4604 31° Northeast  Level Estimated
Mon 05:04:15 AM 34.9787 124.5159 32° Northeast  Level Estimated
Mon 05:05:15 AM 35.0530 124.5715 32° Northeast  Level Estimated
Mon 05:06:15 AM 35.1272 124.6272 32° Northeast  Level Estimated
Mon 05:07:15 AM 35.2014 124.6830 32° Northeast  Level Estimated
Mon 05:08:15 AM 35.2755 124.7389 32° Northeast  Level Estimated
Mon 05:09:15 AM 35.3496 124.7949 32° Northeast  Level Estimated
Mon 05:10:15 AM 35.4238 124.8510 32° Northeast  Level Estimated
Mon 05:11:15 AM 35.4978 124.9072 32° Northeast  Level Estimated
Mon 05:12:15 AM 35.5719 124.9635 32° Northeast  Level Estimated
Mon 05:13:15 AM 35.6459 125.0200 32° Northeast  Level Estimated
Mon 05:14:15 AM 35.7199 125.0765 32° Northeast  Level Estimated
Mon 05:15:15 AM 35.7939 125.1331 32° Northeast  Level Estimated
Mon 05:16:15 AM 35.8678 125.1898 32° Northeast  Level Estimated
Mon 05:17:15 AM 35.9417 125.2467 32° Northeast  Level Estimated
Mon 05:18:15 AM 36.0156 125.3036 32° Northeast  Level Estimated
Mon 05:19:15 AM 36.0895 125.3607 32° Northeast  Level Estimated
Mon 05:20:15 AM 36.1633 125.4178 32° Northeast  Level Estimated
Mon 05:21:15 AM 36.2372 125.4751 32° Northeast  Level Estimated
Mon 05:22:15 AM 36.3110 125.5325 32° Northeast  Level Estimated
Mon 05:23:15 AM 36.3847 125.5900 32° Northeast  Level Estimated
Mon 05:24:15 AM 36.4584 125.6475 32° Northeast  Level Estimated
Mon 05:25:15 AM 36.5321 125.7052 32° Northeast  Level Estimated
Mon 05:26:15 AM 36.6058 125.7630 32° Northeast  Level Estimated
Mon 05:27:15 AM 36.6795 125.8210 32° Northeast  Level Estimated
Mon 05:28:15 AM 36.7531 125.8790 32° Northeast  Level Estimated
Mon 05:29:15 AM 36.8267 125.9371 32° Northeast  Level Estimated
Mon 05:30:15 AM 36.9002 125.9954 32° Northeast  Level Estimated
Mon 05:31:15 AM 36.9738 126.0538 32° Northeast  Level Estimated
Mon 05:32:15 AM 37.0473 126.1123 32° Northeast  Level Estimated
Mon 05:33:15 AM 37.1207 126.1709 32° Northeast  Level Estimated
Mon 05:34:15 AM 37.1942 126.2296 33° Northeast  Level Estimated
Mon 05:35:15 AM 37.2676 126.2884 33° Northeast  Level Estimated
Mon 05:36:15 AM 37.3410 126.3473 33° Northeast  Level Estimated
Mon 05:37:15 AM 37.4144 126.4064 33° Northeast  Level Estimated
Mon 05:38:15 AM 37.4877 126.4656 213° Southwest  Level Estimated
Mon 05:39:15 AM 37.4144 126.4064 33° Northeast  Level Estimated
Mon 05:40:15 AM 37.4877 126.4656 213° Southwest  Level Estimated
Mon 05:41:15 AM 37.4144 126.4064 33° Northeast  Level Estimated
Mon 05:42:15 AM 37.4877 126.4656 213° Southwest  Level Estimated
Mon 05:43:15 AM 37.4144 126.4064 33° Northeast  Level Estimated
Mon 05:44:15 AM 37.4877 126.4656 213° Southwest  Level Estimated
Mon 05:45:15 AM 37.4144 126.4064 33° Northeast  Level Estimated
Mon 05:46:15 AM 37.4877 126.4656 213° Southwest  Level Estimated
Mon 05:47:15 AM 37.4144 126.4064 33° Northeast  Level Estimated
Mon 05:48:15 AM 37.4877 126.4656 213° Southwest  Level Estimated
Mon 05:49:15 AM 37.4144 126.4064 33° Northeast  Level Estimated
Mon 05:50:15 AM 37.4877 126.4656 213° Southwest  Level Estimated
Mon 05:51:15 AM 37.4144 126.4064 33° Northeast  Level Estimated
Mon 05:52:15 AM 37.4877 126.4656 213° Southwest  Level Estimated
Mon 05:53:15 AM 37.4144 126.4064 213° Southwest  Level Estimated

Login

Don't have an account? Register now (free) for customized features, flight alerts, and more!